createdAt,value
2018-04-17T00:00:35.586Z,59.97
2018-04-17T00:03:04.137Z,60.35
2018-04-17T00:05:33.369Z,60.63
2018-04-17T00:08:01.761Z,60.76
2018-04-17T00:10:30.114Z,60.89
2018-04-17T00:12:58.543Z,61.31
2018-04-17T00:15:26.970Z,61.70
2018-04-17T00:17:56.079Z,62.96
2018-04-17T00:20:24.459Z,63.14
2018-04-17T00:22:52.904Z,63.21
2018-04-17T00:25:21.309Z,62.78
2018-04-17T00:27:49.709Z,62.98
2018-04-17T00:30:19.694Z,62.73
2018-04-17T00:32:48.057Z,62.30
2018-04-17T00:35:16.456Z,62.35
2018-04-17T00:37:44.831Z,62.48
2018-04-17T00:40:14.055Z,62.48
2018-04-17T00:42:43.414Z,62.26
2018-04-17T00:45:12.639Z,61.94
2018-04-17T00:47:41.773Z,62.15
2018-04-17T00:50:10.133Z,61.77
2018-04-17T00:52:38.719Z,61.93
2018-04-17T00:55:07.089Z,61.95
2018-04-17T00:57:35.464Z,61.64
2018-04-17T01:00:03.836Z,61.46
2018-04-17T01:02:32.197Z,61.58
2018-04-17T01:05:01.342Z,61.21
2018-04-17T01:07:31.420Z,60.52
2018-04-17T01:10:00.552Z,60.04
2018-04-17T01:12:28.893Z,59.93
2018-04-17T01:14:57.307Z,60.00
2018-04-17T01:17:25.656Z,58.58
2018-04-17T01:19:54.794Z,57.71
2018-04-17T01:22:23.125Z,57.03
2018-04-17T01:24:53.121Z,57.35
2018-04-17T01:27:22.245Z,57.48
2018-04-17T01:29:50.621Z,57.40
2018-04-17T01:32:19.014Z,57.83
2018-04-17T01:34:48.158Z,57.33
2018-04-17T01:37:16.532Z,57.70
2018-04-17T01:39:44.912Z,58.06
2018-04-17T01:42:13.266Z,58.07
2018-04-17T01:44:42.243Z,58.17
2018-04-17T01:47:10.606Z,58.49
2018-04-17T01:49:38.949Z,58.91
2018-04-17T01:52:08.051Z,59.21
2018-04-17T01:54:37.787Z,59.41
2018-04-17T01:57:07.352Z,59.13
2018-04-17T01:59:35.710Z,59.49
2018-04-17T02:02:04.104Z,59.71
2018-04-17T02:04:33.355Z,59.82
2018-04-17T02:07:02.581Z,59.96
2018-04-17T02:09:30.959Z,60.61
2018-04-17T02:11:59.311Z,60.80
2018-04-17T02:14:27.894Z,60.68
2018-04-17T02:16:56.275Z,60.78
2018-04-17T02:19:26.303Z,61.08
2018-04-17T02:21:54.700Z,61.19
2018-04-17T02:24:23.076Z,61.02
2018-04-17T02:26:51.440Z,61.14
2018-04-17T02:29:19.930Z,61.24
2018-04-17T02:31:48.335Z,61.10
2018-04-17T02:34:16.695Z,61.09
2018-04-17T02:36:45.186Z,61.07
2018-04-17T02:39:13.517Z,61.39
2018-04-17T02:41:41.860Z,61.45
2018-04-17T02:44:10.227Z,61.79
2018-04-17T02:46:38.598Z,61.57
2018-04-17T02:49:07.837Z,61.78
2018-04-17T02:51:36.982Z,61.91
2018-04-17T02:54:05.346Z,61.95
2018-04-17T02:56:33.705Z,61.94
2018-04-17T02:59:02.047Z,61.89
2018-04-17T03:01:30.413Z,61.80
2018-04-17T03:03:58.783Z,61.43
2018-04-17T03:06:27.146Z,61.75
2018-04-17T03:08:55.560Z,62.31
2018-04-17T03:11:23.939Z,62.54
2018-04-17T03:13:52.279Z,62.38
2018-04-17T03:16:20.709Z,61.96
2018-04-17T03:18:49.910Z,61.70
2018-04-17T03:21:19.740Z,61.48
2018-04-17T03:23:48.110Z,61.78
2018-04-17T03:26:17.305Z,61.65
2018-04-17T03:28:46.464Z,61.56
2018-04-17T03:31:14.894Z,61.85
2018-04-17T03:33:44.035Z,62.26
2018-04-17T03:36:12.402Z,63.43
2018-04-17T03:38:40.785Z,62.72
2018-04-17T03:41:09.140Z,63.05
2018-04-17T03:43:38.214Z,63.68
2018-04-17T03:46:07.357Z,63.70
2018-04-17T03:48:35.823Z,63.80
2018-04-17T03:51:04.232Z,63.93
2018-04-17T03:53:33.373Z,63.98
2018-04-17T03:56:09.379Z,64.04
2018-04-17T03:58:37.813Z,64.09
2018-04-17T04:01:07.737Z,64.24
2018-04-17T04:03:37.644Z,64.02
2018-04-17T04:06:07.662Z,63.86
2018-04-17T04:08:36.819Z,63.83
2018-04-17T04:11:05.234Z,64.07
2018-04-17T04:13:33.616Z,64.05
2018-04-17T04:16:03.281Z,63.99
2018-04-17T04:18:49.517Z,64.05
2018-04-17T04:21:36.473Z,64.22
2018-04-17T04:27:34.398Z,64.53
2018-04-17T04:30:02.803Z,64.74
2018-04-17T04:32:31.905Z,65.02
2018-04-17T04:35:02.897Z,64.81
2018-04-17T04:37:32.685Z,64.98
2018-04-17T04:40:01.766Z,65.03
2018-04-17T04:42:30.120Z,64.90
2018-04-17T04:44:59.207Z,64.90
2018-04-17T04:47:27.597Z,64.87
2018-04-17T04:49:56.728Z,64.74
2018-04-17T04:52:25.938Z,64.70
2018-04-17T04:54:54.288Z,64.66
2018-04-17T04:57:22.661Z,64.64
2018-04-17T04:59:51.567Z,64.69
2018-04-17T05:02:19.936Z,64.93
2018-04-17T05:04:48.323Z,64.67
2018-04-17T05:07:17.404Z,64.73
2018-04-17T05:09:46.533Z,64.76
2018-04-17T05:12:14.865Z,64.60
2018-04-17T05:14:44.288Z,64.82
2018-04-17T05:17:13.525Z,64.92
2018-04-17T05:19:41.924Z,65.10
2018-04-17T05:22:10.323Z,65.13
2018-04-17T05:24:40.976Z,65.10
2018-04-17T05:27:09.319Z,65.00
2018-04-17T05:29:38.165Z,64.80
2018-04-17T05:32:07.143Z,64.69
2018-04-17T05:34:35.549Z,64.89
2018-04-17T05:37:04.012Z,64.74
2018-04-17T05:39:33.305Z,64.73
2018-04-17T05:42:01.720Z,64.61
2018-04-17T05:44:31.473Z,64.29
2018-04-17T05:47:01.124Z,64.27
2018-04-17T05:49:30.020Z,64.61
2018-04-17T05:51:58.425Z,64.64
2018-04-17T05:54:26.779Z,64.34
2018-04-17T05:56:55.146Z,64.25
2018-04-17T05:59:23.480Z,64.04
2018-04-17T06:01:52.784Z,64.00
2018-04-17T06:04:21.884Z,64.12
2018-04-17T06:06:51.118Z,64.39
2018-04-17T06:09:19.486Z,64.78
2018-04-17T06:11:47.839Z,65.10
2018-04-17T06:14:16.995Z,65.39
2018-04-17T06:16:45.413Z,65.78
2018-04-17T06:19:14.542Z,65.28
2018-04-17T06:21:42.922Z,65.37
2018-04-17T06:24:12.195Z,65.07
2018-04-17T06:26:41.318Z,64.82
2018-04-17T06:29:09.693Z,64.43
2018-04-17T06:31:38.122Z,64.20
2018-04-17T06:34:06.505Z,63.76
2018-04-17T06:36:35.767Z,63.89
2018-04-17T06:39:04.145Z,63.64
2018-04-17T06:41:32.548Z,63.03
2018-04-17T06:44:00.917Z,62.69
2018-04-17T06:46:29.290Z,62.21
2018-04-17T06:48:57.637Z,62.36
2018-04-17T06:51:26.067Z,62.02
2018-04-17T06:53:54.438Z,61.51
2018-04-17T06:56:22.817Z,61.04
2018-04-17T06:58:52.986Z,60.72
2018-04-17T07:01:21.375Z,60.78
2018-04-17T07:03:49.748Z,60.91
2018-04-17T07:06:18.119Z,60.65
2018-04-17T07:08:49.705Z,60.37
2018-04-17T07:11:18.413Z,60.51
2018-04-17T07:13:46.758Z,60.53
2018-04-17T07:16:15.670Z,60.29
2018-04-17T07:18:44.973Z,60.31
2018-04-17T07:21:13.716Z,60.05
2018-04-17T07:23:43.632Z,60.27
2018-04-17T07:26:13.452Z,59.91
2018-04-17T07:28:41.857Z,59.33
2018-04-17T07:31:10.231Z,59.33
2018-04-17T07:33:38.610Z,59.62
2018-04-17T07:36:06.940Z,58.50
2018-04-17T07:38:36.141Z,58.05
2018-04-17T07:41:05.261Z,57.55
2018-04-17T07:43:33.637Z,57.31
2018-04-17T07:46:03.378Z,57.30
2018-04-17T07:48:47.199Z,56.45
2018-04-17T07:51:15.591Z,56.20
2018-04-17T07:53:43.976Z,56.20
2018-04-17T07:56:12.361Z,56.16
2018-04-17T07:58:42.033Z,56.42
2018-04-17T08:01:10.470Z,56.50
2018-04-17T08:03:38.824Z,55.79
2018-04-17T08:06:07.194Z,55.43
2018-04-17T08:08:35.625Z,55.18
2018-04-17T08:11:04.797Z,54.63
2018-04-17T08:13:33.999Z,54.92
2018-04-17T08:16:02.372Z,54.28
2018-04-17T08:18:30.763Z,53.43
2018-04-17T08:20:59.135Z,53.75
2018-04-17T08:23:27.522Z,53.45
2018-04-17T08:25:55.920Z,53.46
2018-04-17T08:28:25.040Z,52.97
2018-04-17T08:30:53.703Z,53.44
2018-04-17T08:33:22.847Z,52.76
2018-04-17T08:35:51.222Z,52.65
2018-04-17T08:38:19.630Z,52.95
2018-04-17T08:40:48.067Z,52.71
2018-04-17T08:43:16.440Z,52.91
2018-04-17T08:45:44.817Z,52.63
2018-04-17T08:48:13.202Z,52.18
2018-04-17T08:50:41.608Z,51.39
2018-04-17T08:53:09.992Z,51.30
2018-04-17T08:55:38.350Z,51.72
2018-04-17T08:58:07.654Z,51.42
2018-04-17T09:00:36.064Z,51.25
2018-04-17T09:03:04.441Z,51.14
2018-04-17T09:05:32.821Z,50.77
2018-04-17T09:08:01.806Z,51.16
2018-04-17T09:10:31.090Z,51.23
2018-04-17T09:12:59.584Z,50.94
2018-04-17T09:15:27.919Z,49.90
2018-04-17T09:17:56.308Z,50.04
2018-04-17T09:20:24.657Z,50.44
2018-04-17T09:22:53.793Z,50.57
2018-04-17T09:25:23.069Z,50.45
2018-04-17T09:27:53.004Z,51.27
2018-04-17T09:30:22.127Z,51.05
2018-04-17T09:32:50.628Z,50.36
2018-04-17T09:35:18.990Z,49.01
2018-04-17T09:37:48.268Z,48.79
2018-04-17T09:40:18.726Z,48.22
2018-04-17T09:42:47.978Z,48.90
2018-04-17T09:45:17.939Z,48.36
2018-04-17T09:47:47.035Z,47.95
2018-04-17T09:50:15.449Z,46.70
2018-04-17T09:52:44.581Z,47.13
2018-04-17T09:55:12.951Z,48.05
2018-04-17T09:57:42.294Z,47.36
2018-04-17T10:00:10.643Z,46.90
2018-04-17T10:02:39.045Z,46.86
2018-04-17T10:05:07.401Z,46.29
2018-04-17T10:07:35.777Z,46.82
2018-04-17T10:10:04.147Z,46.08
2018-04-17T10:12:32.694Z,46.19
2018-04-17T10:15:01.822Z,43.68
2018-04-17T10:17:30.949Z,43.52
2018-04-17T10:19:59.295Z,43.91
2018-04-17T10:22:27.702Z,44.26
2018-04-17T10:24:56.102Z,43.61
2018-04-17T10:27:26.491Z,43.78
2018-04-17T10:29:54.885Z,43.85
2018-04-17T10:32:23.300Z,43.60
2018-04-17T10:34:51.676Z,43.44
2018-04-17T10:37:20.007Z,42.85
2018-04-17T10:39:48.436Z,42.36
2018-04-17T10:42:17.592Z,42.18
2018-04-17T10:44:46.015Z,42.80
2018-04-17T10:47:14.380Z,41.88
2018-04-17T10:49:43.924Z,42.63
2018-04-17T10:52:13.005Z,41.61
2018-04-17T10:54:42.943Z,41.24
2018-04-17T10:57:11.288Z,41.31
2018-04-17T10:59:39.658Z,41.64
2018-04-17T11:02:08.956Z,41.14
2018-04-17T11:04:37.321Z,40.36
2018-04-17T11:07:05.673Z,40.72
2018-04-17T11:09:34.069Z,40.52
2018-04-17T11:12:02.441Z,39.31
2018-04-17T11:14:31.673Z,39.27
2018-04-17T11:17:00.092Z,39.32
2018-04-17T11:19:28.462Z,39.34
2018-04-17T11:21:58.411Z,39.07
2018-04-17T11:24:26.775Z,39.39
2018-04-17T11:26:55.688Z,38.84
2018-04-17T11:29:24.063Z,39.07
2018-04-17T11:31:53.286Z,39.00
2018-04-17T11:34:21.675Z,39.18
2018-04-17T11:36:50.871Z,39.66
2018-04-17T11:39:20.978Z,39.10
2018-04-17T11:41:49.323Z,38.70
2018-04-17T11:44:18.373Z,38.89
2018-04-17T11:46:46.794Z,37.64
2018-04-17T11:49:15.181Z,38.58
2018-04-17T11:51:43.555Z,38.60
2018-04-17T11:54:11.918Z,38.01
2018-04-17T11:56:41.183Z,37.84
2018-04-17T11:59:10.297Z,36.96
2018-04-17T12:01:39.402Z,37.65
2018-04-17T12:04:07.874Z,37.26
2018-04-17T12:06:36.252Z,37.73
2018-04-17T12:09:06.904Z,37.21
2018-04-17T12:11:35.333Z,37.57
2018-04-17T12:14:06.480Z,37.36
2018-04-17T12:16:37.114Z,37.50
2018-04-17T12:19:06.445Z,38.25
2018-04-17T12:21:38.559Z,36.82
2018-04-17T12:24:07.794Z,37.04
2018-04-17T12:26:37.165Z,36.77
2018-04-17T12:29:05.559Z,36.63
2018-04-17T12:31:33.927Z,36.75
2018-04-17T12:34:02.906Z,36.53
2018-04-17T12:36:31.300Z,35.86
2018-04-17T12:38:59.670Z,36.08
2018-04-17T12:41:28.040Z,37.20
2018-04-17T12:43:57.124Z,36.16
2018-04-17T12:46:26.471Z,35.81
2018-04-17T12:48:54.831Z,37.27
2018-04-17T12:51:23.202Z,35.52
2018-04-17T12:53:51.582Z,35.62
2018-04-17T12:56:20.307Z,35.42
2018-04-17T12:58:49.480Z,35.88
2018-04-17T13:01:17.891Z,36.04
2018-04-17T13:03:47.029Z,35.54
2018-04-17T13:06:16.300Z,34.63
2018-04-17T13:08:45.575Z,35.56
2018-04-17T13:11:15.245Z,34.63
2018-04-17T13:13:46.604Z,35.65
2018-04-17T13:16:15.218Z,35.22
2018-04-17T13:18:44.459Z,34.93
2018-04-17T13:21:13.575Z,34.30
2018-04-17T13:23:44.221Z,33.81
2018-04-17T13:26:14.556Z,34.96
2018-04-17T13:28:48.444Z,35.37
2018-04-17T13:31:16.813Z,34.11
2018-04-17T13:33:49.654Z,34.23
2018-04-17T13:36:19.745Z,34.62
2018-04-17T13:38:50.486Z,35.09
2018-04-17T13:41:20.933Z,34.31
2018-04-17T13:43:52.405Z,34.34
2018-04-17T13:46:22.446Z,33.84
2018-04-17T13:48:50.825Z,33.37
2018-04-17T13:51:21.593Z,33.11
2018-04-17T13:53:51.928Z,32.68
2018-04-17T13:56:21.937Z,32.22
2018-04-17T13:58:51.845Z,33.11
2018-04-17T14:01:22.384Z,32.44
2018-04-17T14:03:50.780Z,32.33
2018-04-17T14:06:20.950Z,32.09
2018-04-17T14:08:51.586Z,31.86
2018-04-17T14:11:20.747Z,32.09
2018-04-17T14:13:50.678Z,32.10
2018-04-17T14:16:19.039Z,32.43
2018-04-17T14:18:49.007Z,31.45
2018-04-17T14:21:18.883Z,31.62
2018-04-17T14:23:48.005Z,31.71
2018-04-17T14:26:17.491Z,31.91
2018-04-17T14:28:45.890Z,31.16
2018-04-17T14:31:14.295Z,31.37
2018-04-17T14:33:43.491Z,30.76
2018-04-17T14:36:14.340Z,30.85
2018-04-17T14:38:43.910Z,30.90
2018-04-17T14:41:12.755Z,31.51
2018-04-17T14:43:41.821Z,31.92
2018-04-17T14:46:12.238Z,31.88
2018-04-17T14:48:43.782Z,32.09
2018-04-17T14:51:13.041Z,32.41
2018-04-17T14:53:47.509Z,32.44
2018-04-17T14:56:16.542Z,32.17
2018-04-17T14:58:45.852Z,32.14
2018-04-17T15:01:16.374Z,32.67
2018-04-17T15:03:46.843Z,32.42
2018-04-17T15:06:18.005Z,33.58
2018-04-17T15:08:47.700Z,33.01
2018-04-17T15:11:16.631Z,32.20
2018-04-17T15:13:46.984Z,32.22
2018-04-17T15:16:15.686Z,33.49
2018-04-17T15:18:44.686Z,32.39
2018-04-17T15:21:13.978Z,31.90
2018-04-17T15:23:44.007Z,31.78
2018-04-17T15:26:13.328Z,32.72
2018-04-17T15:28:44.425Z,32.99
2018-04-17T15:31:14.392Z,32.37
2018-04-17T15:33:44.509Z,32.19
2018-04-17T15:36:13.783Z,32.06
2018-04-17T15:38:43.542Z,31.52
2018-04-17T15:41:13.556Z,32.43
2018-04-17T15:43:45.969Z,32.04
2018-04-17T15:46:16.847Z,32.21
2018-04-17T15:48:45.309Z,32.55
2018-04-17T15:51:29.354Z,31.87
2018-04-17T15:55:41.105Z,31.70
2018-04-17T15:58:11.201Z,31.99
2018-04-17T16:00:39.731Z,32.41
2018-04-17T16:03:08.138Z,31.63
2018-04-17T16:05:37.930Z,31.37
2018-04-17T16:08:07.473Z,31.26
2018-04-17T16:10:36.717Z,30.70
2018-04-17T16:13:05.182Z,30.98
2018-04-17T16:15:35.402Z,31.45
2018-04-17T16:18:04.877Z,32.00
2018-04-17T16:20:33.792Z,33.61
2018-04-17T16:23:03.405Z,33.92
2018-04-17T16:25:32.712Z,32.47
2018-04-17T16:28:02.006Z,33.69
2018-04-17T16:30:31.277Z,32.63
2018-04-17T16:33:00.002Z,34.10
2018-04-17T16:35:29.241Z,35.07
2018-04-17T16:37:58.381Z,35.01
2018-04-17T16:40:27.641Z,34.54
2018-04-17T16:42:56.055Z,36.02
2018-04-17T16:45:24.563Z,35.09
2018-04-17T16:47:53.045Z,35.08
2018-04-17T16:50:21.472Z,36.03
2018-04-17T16:52:49.954Z,35.03
2018-04-17T16:55:18.346Z,36.30
2018-04-17T16:57:48.343Z,35.98
2018-04-17T17:00:16.725Z,35.72
2018-04-17T17:02:45.161Z,36.43
2018-04-17T17:05:13.563Z,35.54
2018-04-17T17:07:43.516Z,36.68
2018-04-17T17:10:11.930Z,37.60
2018-04-17T17:12:41.059Z,36.30
2018-04-17T17:15:09.550Z,38.50
2018-04-17T17:17:37.974Z,36.25
2018-04-17T17:20:07.283Z,35.58
2018-04-17T17:22:36.408Z,35.44
2018-04-17T17:25:04.904Z,35.26
2018-04-17T17:27:33.315Z,35.45
2018-04-17T17:30:02.513Z,35.50
2018-04-17T17:32:31.327Z,35.38
2018-04-17T17:35:01.264Z,35.64
2018-04-17T17:37:29.627Z,35.22
2018-04-17T17:39:58.763Z,35.22
2018-04-17T17:42:27.139Z,35.96
2018-04-17T17:44:55.626Z,36.57
2018-04-17T17:47:24.050Z,37.08
2018-04-17T17:49:52.411Z,37.27
2018-04-17T17:52:21.216Z,38.02
2018-04-17T17:54:50.381Z,38.08
2018-04-17T17:57:18.757Z,38.17
2018-04-17T17:59:47.238Z,37.96
2018-04-17T18:02:15.677Z,38.08
2018-04-17T18:04:44.763Z,38.66
2018-04-17T18:07:13.182Z,39.00
2018-04-17T18:09:41.647Z,39.83
2018-04-17T18:12:10.973Z,39.40
2018-04-17T18:14:41.051Z,38.69
2018-04-17T18:17:10.164Z,39.04
2018-04-17T18:19:39.000Z,39.00
2018-04-17T18:22:07.603Z,39.17
2018-04-17T18:24:36.805Z,39.67
2018-04-17T18:27:05.973Z,39.22
2018-04-17T18:29:34.336Z,39.70
2018-04-17T18:32:03.199Z,39.88
2018-04-17T18:34:31.580Z,40.07
2018-04-17T18:37:00.528Z,40.23
2018-04-17T18:39:28.990Z,40.33
2018-04-17T18:41:57.498Z,40.48
2018-04-17T18:44:26.647Z,40.77
2018-04-17T18:46:55.079Z,40.79
2018-04-17T18:49:24.418Z,41.21
2018-04-17T18:51:52.794Z,41.25
2018-04-17T18:54:21.135Z,41.78
2018-04-17T18:56:50.323Z,42.08
2018-04-17T18:59:18.744Z,42.48
2018-04-17T19:01:47.262Z,41.48
2018-04-17T19:04:16.439Z,41.67
2018-04-17T19:06:44.879Z,42.39
2018-04-17T19:09:26.040Z,42.45
2018-04-17T19:11:54.477Z,42.92
2018-04-17T19:14:22.953Z,42.95
2018-04-17T19:16:52.184Z,42.84
2018-04-17T19:19:20.654Z,43.01
2018-04-17T19:21:49.033Z,42.86
2018-04-17T19:24:17.419Z,42.53
2018-04-17T19:26:45.855Z,42.69
2018-04-17T19:29:14.248Z,43.59
2018-04-17T19:31:42.654Z,43.55
2018-04-17T19:34:10.974Z,44.08
2018-04-17T19:37:00.330Z,44.26
2018-04-17T19:39:29.483Z,42.77
2018-04-17T19:41:57.908Z,43.71
2018-04-17T19:44:27.085Z,44.02
2018-04-17T19:46:55.451Z,44.54
2018-04-17T19:49:23.838Z,44.15
2018-04-17T19:51:52.286Z,43.52
2018-04-17T19:54:20.664Z,44.34
2018-04-17T19:56:49.025Z,44.37
2018-04-17T19:59:17.461Z,44.62
2018-04-17T20:01:47.919Z,45.18
2018-04-17T20:04:17.078Z,45.22
2018-04-17T20:06:45.493Z,44.77
2018-04-17T20:09:14.658Z,45.04
2018-04-17T20:11:43.739Z,45.43
2018-04-17T20:14:12.142Z,45.85
2018-04-17T20:16:40.527Z,46.29
2018-04-17T20:19:08.962Z,47.05
2018-04-17T20:21:37.346Z,46.44
2018-04-17T20:24:05.793Z,46.67
2018-04-17T20:26:34.241Z,46.64
2018-04-17T20:29:02.660Z,47.09
2018-04-17T20:31:31.134Z,47.57
2018-04-17T20:33:59.517Z,47.72
2018-04-17T20:36:27.893Z,47.60
2018-04-17T20:38:56.272Z,48.00
2018-04-17T20:41:24.788Z,48.16
2018-04-17T20:43:53.198Z,48.15
2018-04-17T20:46:22.326Z,47.88
2018-04-17T20:48:51.518Z,48.50
2018-04-17T20:51:20.728Z,48.53
2018-04-17T20:53:49.096Z,48.43
2018-04-17T20:56:18.289Z,48.53
2018-04-17T20:58:48.685Z,48.87
2018-04-17T21:01:17.060Z,48.61
2018-04-17T21:03:45.931Z,48.85
2018-04-17T21:06:14.358Z,49.56
2018-04-17T21:08:43.658Z,49.46
2018-04-17T21:11:12.105Z,49.68
2018-04-17T21:13:40.485Z,50.34
2018-04-17T21:16:08.872Z,50.00
2018-04-17T21:18:37.783Z,50.03
2018-04-17T21:21:06.537Z,50.06
2018-04-17T21:23:35.489Z,50.21
2018-04-17T21:26:03.921Z,50.90
2018-04-17T21:28:32.347Z,50.59
2018-04-17T21:31:00.851Z,51.13
2018-04-17T21:33:29.241Z,51.12
2018-04-17T21:35:58.329Z,50.98
2018-04-17T21:38:27.473Z,51.42
2018-04-17T21:40:55.841Z,51.55
2018-04-17T21:43:24.371Z,51.37
2018-04-17T21:45:52.723Z,51.50
2018-04-17T21:48:21.973Z,52.33
2018-04-17T21:50:50.800Z,52.01
2018-04-17T21:53:19.234Z,52.33
2018-04-17T21:55:47.613Z,52.41
2018-04-17T21:58:16.020Z,52.08
2018-04-17T22:00:44.441Z,52.38
2018-04-17T22:03:14.093Z,52.51
2018-04-17T22:05:42.454Z,52.43
2018-04-17T22:08:10.860Z,53.16
2018-04-17T22:10:39.240Z,52.84
2018-04-17T22:13:07.587Z,52.84
2018-04-17T22:15:36.070Z,53.26
2018-04-17T22:18:05.933Z,53.16
2018-04-17T22:20:34.297Z,53.19
2018-04-17T22:23:03.512Z,53.04
2018-04-17T22:25:31.894Z,53.57
2018-04-17T22:28:00.270Z,53.57
2018-04-17T22:30:29.325Z,53.54
2018-04-17T22:32:58.025Z,54.17
2018-04-17T22:35:26.442Z,53.59
2018-04-17T22:37:56.345Z,53.77
2018-04-17T22:40:28.173Z,53.80
2018-04-17T22:42:56.792Z,54.45
2018-04-17T22:45:25.743Z,53.84
2018-04-17T22:47:55.731Z,54.47
2018-04-17T22:50:25.930Z,54.35
2018-04-17T22:52:54.312Z,54.40
2018-04-17T22:55:24.171Z,54.54
2018-04-17T22:57:52.713Z,55.04
2018-04-17T23:00:21.868Z,54.92
2018-04-17T23:02:50.283Z,55.13
2018-04-17T23:05:18.828Z,55.06
2018-04-17T23:07:47.178Z,54.94
2018-04-17T23:10:15.537Z,55.07
2018-04-17T23:12:46.556Z,55.60
2018-04-17T23:15:17.001Z,55.53
2018-04-17T23:17:46.169Z,55.67
2018-04-17T23:20:14.530Z,55.58
2018-04-17T23:22:42.893Z,55.74
2018-04-17T23:25:11.878Z,55.75
2018-04-17T23:27:40.503Z,56.06
2018-04-17T23:30:09.561Z,56.46
2018-04-17T23:32:38.432Z,56.41
2018-04-17T23:35:07.570Z,56.44
2018-04-17T23:37:35.982Z,56.93
2018-04-17T23:40:05.164Z,56.88
2018-04-17T23:42:35.437Z,57.05
2018-04-17T23:45:03.867Z,56.76
2018-04-17T23:47:33.124Z,57.24
2018-04-17T23:50:01.955Z,57.40
2018-04-17T23:52:30.344Z,57.44
2018-04-17T23:54:59.502Z,57.53
2018-04-17T23:57:28.225Z,57.59
2018-04-17T23:59:57.246Z,57.83
